Rosholt, Wisconsin
Current Conditions -  °F | °C
As of 4:35 AM on Friday 21 Nov 2014 (Local Time) from KSTE Reporting Station
Clear Clear  
Wind Chill: -22°   Ceiling: Unl
Heat Index: -22°   Visibility: 10mi
Dew Point: -24°   Wind: 0mph
Humidity: 84%   Direction: NA
Pressure: 30.31"   Gusts: NA
Location:  44.63°N, 89.31°W
Report Text: KSTE 211035Z AUTO 00000KT 10SM CLR M22/M24 A3031 RMK AO2 T12211242
Loading
Personal Weather Stations






























Interactive Weather Map New forecast layout! Learn more

10-Day Weather Forecast

Advertisements
Track Severe Weather on mobile